createdAt,value
2022-10-17T00:00:45.252Z,12.76
2022-10-17T00:04:46.641Z,12.89
2022-10-17T00:08:48.033Z,12.82
2022-10-17T00:12:50.922Z,12.74
2022-10-17T00:16:52.273Z,12.67
2022-10-17T00:20:53.715Z,12.56
2022-10-17T00:24:55.099Z,12.70
2022-10-17T00:28:56.995Z,12.57
2022-10-17T00:32:58.422Z,12.32
2022-10-17T00:36:59.817Z,12.76
2022-10-17T00:41:01.637Z,12.71
2022-10-17T00:45:20.899Z,12.41
2022-10-17T00:49:26.097Z,12.64
2022-10-17T00:53:27.615Z,12.77
2022-10-17T00:57:31.742Z,12.69
2022-10-17T01:01:33.825Z,12.56
2022-10-17T01:05:35.919Z,12.48
2022-10-17T01:09:38.720Z,12.55
2022-10-17T01:13:50.210Z,12.82
2022-10-17T01:18:10.258Z,12.74
2022-10-17T01:22:27.252Z,12.81
2022-10-17T01:26:31.948Z,12.40
2022-10-17T01:31:03.111Z,12.37
2022-10-17T01:35:18.884Z,12.56
2022-10-17T01:39:43.938Z,12.37
2022-10-17T01:43:59.318Z,12.18
2022-10-17T01:48:07.254Z,12.07
2022-10-17T01:52:24.818Z,12.31
2022-10-17T01:56:29.813Z,12.47
2022-10-17T02:00:32.543Z,12.22
2022-10-17T02:04:35.140Z,12.00
2022-10-17T02:08:48.393Z,12.14
2022-10-17T02:12:58.959Z,11.97
2022-10-17T02:17:02.935Z,12.07
2022-10-17T02:21:13.229Z,11.97
2022-10-17T02:25:21.009Z,11.83
2022-10-17T02:29:38.885Z,11.89
2022-10-17T02:33:46.290Z,12.04
2022-10-17T02:37:48.726Z,12.06
2022-10-17T02:41:52.545Z,12.16
2022-10-17T02:45:55.003Z,12.09
2022-10-17T02:49:58.762Z,12.14
2022-10-17T02:54:19.807Z,12.28
2022-10-17T02:58:25.465Z,12.34
2022-10-17T03:02:27.211Z,12.35
2022-10-17T03:06:28.765Z,12.39
2022-10-17T03:10:30.166Z,12.55
2022-10-17T03:14:31.580Z,12.71
2022-10-17T03:18:32.975Z,12.72
2022-10-17T03:22:34.502Z,12.80
2022-10-17T03:26:35.984Z,12.88
2022-10-17T03:30:38.645Z,13.00
2022-10-17T03:34:40.012Z,13.01
2022-10-17T03:38:42.491Z,13.19
2022-10-17T03:42:44.069Z,13.16
2022-10-17T03:46:45.607Z,13.17
2022-10-17T03:50:47.072Z,13.39
2022-10-17T03:54:50.371Z,13.34
2022-10-17T03:58:52.151Z,13.33
2022-10-17T04:02:53.755Z,13.22
2022-10-17T04:06:55.183Z,13.13
2022-10-17T04:11:00.946Z,13.18
2022-10-17T04:15:02.351Z,13.10
2022-10-17T04:19:04.129Z,13.05
2022-10-17T04:23:05.530Z,13.03
2022-10-17T04:27:07.012Z,12.93
2022-10-17T04:31:13.092Z,13.03
2022-10-17T04:35:14.570Z,12.95
2022-10-17T04:39:15.923Z,12.98
2022-10-17T04:43:17.389Z,12.92
2022-10-17T04:47:18.763Z,13.06
2022-10-17T04:51:23.157Z,13.00
2022-10-17T04:55:27.525Z,13.02
2022-10-17T04:59:28.949Z,12.91
2022-10-17T05:03:30.330Z,12.96
2022-10-17T05:07:31.753Z,12.94
2022-10-17T05:11:33.200Z,12.89
2022-10-17T05:15:35.277Z,12.85
2022-10-17T05:19:36.721Z,12.81
2022-10-17T05:23:38.100Z,12.74
2022-10-17T05:27:39.498Z,12.72
2022-10-17T05:31:40.889Z,12.76
2022-10-17T05:35:42.323Z,12.71
2022-10-17T05:39:46.756Z,12.71
2022-10-17T05:43:50.774Z,12.68
2022-10-17T05:47:52.170Z,12.75
2022-10-17T05:51:53.603Z,12.67
2022-10-17T05:55:56.611Z,12.73
2022-10-17T05:59:58.090Z,12.77
2022-10-17T06:03:59.507Z,12.87
2022-10-17T06:08:02.105Z,12.89
2022-10-17T06:12:03.733Z,12.96
2022-10-17T06:16:05.959Z,12.96
2022-10-17T06:20:08.049Z,13.06
2022-10-17T06:24:09.497Z,13.02
2022-10-17T06:28:11.393Z,13.10
2022-10-17T06:32:15.070Z,13.02
2022-10-17T06:36:16.781Z,13.07
2022-10-17T06:40:18.384Z,13.05
2022-10-17T06:44:19.762Z,13.15
2022-10-17T06:48:21.187Z,13.09
2022-10-17T06:52:22.871Z,13.27
2022-10-17T06:56:24.389Z,13.43
2022-10-17T07:00:26.790Z,13.41
2022-10-17T07:04:28.433Z,13.57
2022-10-17T07:08:29.868Z,13.67
2022-10-17T07:12:31.299Z,13.76
2022-10-17T07:16:33.030Z,13.92
2022-10-17T07:20:36.542Z,13.97
2022-10-17T07:24:38.006Z,13.88
2022-10-17T07:28:42.105Z,13.90
2022-10-17T07:32:44.170Z,14.07
2022-10-17T07:36:45.825Z,14.18
2022-10-17T07:40:54.575Z,14.61
2022-10-17T07:44:56.054Z,14.77
2022-10-17T07:48:57.454Z,15.00
2022-10-17T07:52:58.845Z,15.37
2022-10-17T07:57:00.415Z,15.63
2022-10-17T08:01:10.682Z,15.85
2022-10-17T08:05:15.289Z,16.03
2022-10-17T08:09:17.008Z,15.99
2022-10-17T08:13:18.446Z,16.36
2022-10-17T08:17:19.841Z,16.52
2022-10-17T08:21:21.295Z,16.73
2022-10-17T08:25:23.288Z,16.92
2022-10-17T08:29:25.055Z,17.09
2022-10-17T08:33:26.436Z,17.27
2022-10-17T08:37:28.220Z,17.53
2022-10-17T08:41:44.719Z,17.71
2022-10-17T08:45:52.398Z,18.11
2022-10-17T08:50:02.628Z,18.22
2022-10-17T08:54:16.591Z,18.26
2022-10-17T08:58:20.887Z,18.50
2022-10-17T09:02:40.977Z,18.83
2022-10-17T09:06:56.048Z,18.91
2022-10-17T09:11:21.891Z,19.01
2022-10-17T09:15:40.658Z,19.25
2022-10-17T09:20:09.872Z,19.38
2022-10-17T09:24:22.512Z,19.29
2022-10-17T09:28:34.805Z,19.34
2022-10-17T09:32:37.542Z,19.47
2022-10-17T09:36:40.629Z,19.62
2022-10-17T09:40:42.177Z,19.66
2022-10-17T09:45:12.911Z,20.40
2022-10-17T09:49:29.183Z,20.39
2022-10-17T09:53:36.046Z,20.50
2022-10-17T09:57:58.619Z,20.65
2022-10-17T10:02:20.747Z,20.86
2022-10-17T10:06:22.170Z,21.19
2022-10-17T10:10:27.909Z,21.55
2022-10-17T10:14:35.768Z,21.55
2022-10-17T10:18:37.246Z,21.81
2022-10-17T10:22:38.749Z,21.97
2022-10-17T10:26:48.745Z,21.27
2022-10-17T10:30:52.308Z,21.64
2022-10-17T10:35:08.705Z,22.00
2022-10-17T10:39:25.601Z,22.45
2022-10-17T10:43:37.811Z,22.97
2022-10-17T10:47:39.405Z,23.30
2022-10-17T10:51:45.883Z,23.53
2022-10-17T10:55:54.903Z,23.64
2022-10-17T11:00:04.520Z,23.75
2022-10-17T11:04:31.257Z,23.32
2022-10-17T11:08:40.680Z,23.59
2022-10-17T11:13:13.833Z,23.92
2022-10-17T11:17:35.019Z,23.53
2022-10-17T11:21:47.011Z,23.94
2022-10-17T11:25:51.237Z,24.38
2022-10-17T11:29:52.685Z,24.53
2022-10-17T11:34:04.702Z,23.87
2022-10-17T11:38:18.564Z,23.44
2022-10-17T11:42:27.418Z,23.94
2022-10-17T11:46:29.844Z,23.96
2022-10-17T11:55:06.456Z,24.17
2022-10-17T11:59:45.575Z,23.98
2022-10-17T12:04:12.671Z,24.58
2022-10-17T12:08:29.138Z,24.70
2022-10-17T12:12:34.836Z,25.07
2022-10-17T12:16:38.604Z,24.89
2022-10-17T12:20:40.425Z,25.00
2022-10-17T12:24:54.706Z,24.59
2022-10-17T12:28:57.426Z,24.43
2022-10-17T12:33:07.792Z,25.49
2022-10-17T12:37:11.768Z,26.04
2022-10-17T12:41:13.273Z,25.46
2022-10-17T12:45:46.913Z,24.22
2022-10-17T12:49:55.746Z,24.32
2022-10-17T12:54:16.277Z,24.52
2022-10-17T12:58:17.823Z,24.71
2022-10-17T13:02:22.077Z,24.92
2022-10-17T13:06:29.574Z,24.72
2022-10-17T13:10:43.006Z,24.84
2022-10-17T13:14:47.075Z,24.94
2022-10-17T13:18:53.121Z,24.42
2022-10-17T13:22:57.131Z,24.84
2022-10-17T13:26:59.404Z,24.51
2022-10-17T13:31:00.786Z,24.40
2022-10-17T13:35:14.278Z,24.61
2022-10-17T13:39:23.165Z,24.81
2022-10-17T13:43:31.165Z,24.95
2022-10-17T13:47:36.681Z,24.75
2022-10-17T13:51:43.872Z,25.33
2022-10-17T13:56:15.823Z,25.42
2022-10-17T14:00:21.635Z,24.87
2022-10-17T14:04:23.116Z,25.39
2022-10-17T14:08:24.928Z,24.92
2022-10-17T14:12:26.597Z,24.89
2022-10-17T14:16:38.865Z,25.50
2022-10-17T14:21:19.782Z,25.96
2022-10-17T14:25:04.464Z,25.24
2022-10-17T14:29:17.221Z,25.81
2022-10-17T14:33:30.894Z,26.02
2022-10-17T14:37:47.650Z,24.71
2022-10-17T14:41:49.866Z,25.03
2022-10-17T14:45:51.861Z,24.33
2022-10-17T14:50:23.656Z,24.14
2022-10-17T14:54:27.440Z,24.23
2022-10-17T14:58:30.927Z,24.30
2022-10-17T15:02:32.630Z,23.84
2022-10-17T15:06:34.982Z,23.37
2022-10-17T15:10:37.593Z,23.25
2022-10-17T15:14:38.975Z,23.09
2022-10-17T15:18:40.353Z,23.24
2022-10-17T15:22:41.988Z,22.92
2022-10-17T15:26:43.616Z,22.79
2022-10-17T15:30:45.198Z,22.75
2022-10-17T15:34:46.774Z,22.69
2022-10-17T15:38:49.727Z,22.62
2022-10-17T15:42:51.579Z,22.53
2022-10-17T15:46:55.414Z,22.39
2022-10-17T15:50:56.896Z,22.34
2022-10-17T15:55:00.948Z,22.42
2022-10-17T15:59:12.970Z,22.20
2022-10-17T16:03:14.579Z,22.00
2022-10-17T16:07:18.349Z,21.98
2022-10-17T16:11:32.388Z,22.11
2022-10-17T16:15:34.191Z,22.10
2022-10-17T16:19:35.650Z,21.96
2022-10-17T16:23:37.148Z,21.87
2022-10-17T16:27:39.314Z,21.54
2022-10-17T16:31:43.140Z,21.59
2022-10-17T16:35:46.614Z,21.55
2022-10-17T16:39:52.274Z,21.43
2022-10-17T16:43:56.624Z,21.06
2022-10-17T16:47:58.127Z,21.00
2022-10-17T16:51:59.546Z,21.16
2022-10-17T16:56:04.871Z,20.89
2022-10-17T17:00:07.286Z,20.79
2022-10-17T17:04:09.337Z,20.36
2022-10-17T17:08:12.610Z,20.31
2022-10-17T17:12:14.249Z,20.25
2022-10-17T17:16:18.736Z,20.19
2022-10-17T17:20:20.220Z,19.54
2022-10-17T17:24:21.672Z,18.90
2022-10-17T17:28:23.100Z,19.12
2022-10-17T17:32:24.633Z,19.55
2022-10-17T17:36:28.609Z,19.52
2022-10-17T17:40:30.000Z,19.22
2022-10-17T17:44:31.904Z,19.26
2022-10-17T17:48:33.596Z,19.43
2022-10-17T17:52:35.328Z,19.18
2022-10-17T17:56:36.919Z,19.10
2022-10-17T18:00:40.457Z,18.92
2022-10-17T18:04:41.916Z,18.99
2022-10-17T18:08:45.736Z,18.81
2022-10-17T18:12:47.163Z,18.75
2022-10-17T18:16:48.546Z,18.22
2022-10-17T18:20:49.936Z,18.42
2022-10-17T18:24:51.375Z,18.45
2022-10-17T18:28:52.884Z,18.09
2022-10-17T18:32:54.238Z,18.42
2022-10-17T18:36:55.763Z,18.59
2022-10-17T18:41:05.593Z,18.60
2022-10-17T18:45:07.812Z,18.59
2022-10-17T18:49:11.427Z,18.55
2022-10-17T18:53:12.796Z,18.35
2022-10-17T18:57:14.240Z,18.02
2022-10-17T19:01:21.753Z,18.17
2022-10-17T19:05:23.223Z,17.85
2022-10-17T19:09:24.602Z,18.23
2022-10-17T19:13:25.983Z,17.93
2022-10-17T19:17:28.922Z,17.75
2022-10-17T19:21:31.651Z,17.06
2022-10-17T19:25:33.767Z,16.87
2022-10-17T19:29:35.808Z,16.82
2022-10-17T19:33:37.752Z,17.30
2022-10-17T19:37:39.653Z,17.26
2022-10-17T19:41:42.650Z,16.87
2022-10-17T19:45:44.631Z,17.40
2022-10-17T19:49:49.918Z,17.40
2022-10-17T19:53:53.934Z,17.14
2022-10-17T19:57:55.728Z,17.41
2022-10-17T20:01:57.646Z,17.34
2022-10-17T20:05:59.078Z,17.43
2022-10-17T20:10:00.580Z,17.51
2022-10-17T20:14:02.048Z,17.55
2022-10-17T20:18:04.859Z,17.53
2022-10-17T20:22:06.242Z,17.37
2022-10-17T20:26:26.344Z,17.41
2022-10-17T20:30:33.952Z,16.93
2022-10-17T20:34:36.022Z,16.76
2022-10-17T20:38:38.077Z,16.89
2022-10-17T20:42:40.050Z,16.96
2022-10-17T20:46:48.813Z,16.65
2022-10-17T20:50:58.925Z,16.89
2022-10-17T20:55:00.305Z,16.77
2022-10-17T20:59:06.990Z,16.83
2022-10-17T21:03:09.386Z,16.64
2022-10-17T21:07:10.784Z,16.78
2022-10-17T21:11:14.286Z,16.72
2022-10-17T21:15:15.741Z,16.43
2022-10-17T21:19:17.183Z,16.31
2022-10-17T21:23:18.560Z,16.39
2022-10-17T21:27:20.168Z,16.31
2022-10-17T21:31:26.998Z,16.25
2022-10-17T21:35:28.390Z,16.13
2022-10-17T21:39:29.853Z,16.06
2022-10-17T21:43:31.906Z,16.07
2022-10-17T21:47:34.525Z,16.10
2022-10-17T21:51:37.651Z,16.16
2022-10-17T21:55:39.088Z,15.93
2022-10-17T21:59:40.447Z,15.77
2022-10-17T22:03:46.773Z,15.31
2022-10-17T22:07:48.435Z,15.46
2022-10-17T22:11:52.307Z,15.40
2022-10-17T22:15:59.395Z,15.07
2022-10-17T22:20:00.870Z,15.30
2022-10-17T22:24:05.366Z,15.31
2022-10-17T22:28:06.844Z,15.19
2022-10-17T22:32:08.202Z,15.32
2022-10-17T22:36:10.159Z,15.10
2022-10-17T22:40:11.928Z,15.14
2022-10-17T22:44:13.345Z,15.21
2022-10-17T22:48:14.725Z,14.95
2022-10-17T22:52:16.113Z,14.73
2022-10-17T22:56:20.643Z,15.08
2022-10-17T23:00:22.109Z,15.19
2022-10-17T23:04:23.547Z,15.29
2022-10-17T23:08:25.999Z,15.11
2022-10-17T23:12:27.534Z,15.16
2022-10-17T23:16:29.054Z,15.27
2022-10-17T23:20:31.022Z,15.31
2022-10-17T23:24:33.217Z,15.33
2022-10-17T23:28:35.581Z,15.35
2022-10-17T23:32:38.512Z,15.28
2022-10-17T23:36:39.984Z,15.24
2022-10-17T23:40:41.988Z,15.28
2022-10-17T23:44:43.379Z,14.89
2022-10-17T23:48:44.769Z,15.17
2022-10-17T23:52:46.199Z,15.24
2022-10-17T23:56:47.597Z,15.25
